sensor_id;sensor_type;location;lat;lon;timestamp;P1;durP1;ratioP1;P2;durP2;ratioP2
8946;SDS011;4508;48.790;9.028;2022-12-04T00:01:23;24.92;;;22.33;;
8946;SDS011;4508;48.790;9.028;2022-12-04T00:03:51;24.63;;;22.13;;
8946;SDS011;4508;48.790;9.028;2022-12-04T00:06:19;25.13;;;22.27;;
8946;SDS011;4508;48.790;9.028;2022-12-04T00:08:46;24.47;;;21.87;;
8946;SDS011;4508;48.790;9.028;2022-12-04T00:11:15;24.75;;;21.48;;
8946;SDS011;4508;48.790;9.028;2022-12-04T00:13:46;23.88;;;21.23;;
8946;SDS011;4508;48.790;9.028;2022-12-04T00:16:14;23.90;;;21.30;;
8946;SDS011;4508;48.790;9.028;2022-12-04T00:18:42;25.17;;;22.13;;
8946;SDS011;4508;48.790;9.028;2022-12-04T00:21:10;23.37;;;20.87;;
8946;SDS011;4508;48.790;9.028;2022-12-04T00:23:38;23.95;;;21.35;;
8946;SDS011;4508;48.790;9.028;2022-12-04T00:26:06;23.83;;;21.27;;
8946;SDS011;4508;48.790;9.028;2022-12-04T00:28:34;23.85;;;21.25;;
8946;SDS011;4508;48.790;9.028;2022-12-04T00:31:05;23.75;;;21.02;;
8946;SDS011;4508;48.790;9.028;2022-12-04T00:33:32;23.60;;;20.42;;
8946;SDS011;4508;48.790;9.028;2022-12-04T00:36:02;23.33;;;20.77;;
8946;SDS011;4508;48.790;9.028;2022-12-04T00:38:30;22.90;;;20.33;;
8946;SDS011;4508;48.790;9.028;2022-12-04T00:40:57;23.50;;;21.00;;
8946;SDS011;4508;48.790;9.028;2022-12-04T00:43:25;23.15;;;20.75;;
8946;SDS011;4508;48.790;9.028;2022-12-04T00:45:52;22.10;;;19.38;;
8946;SDS011;4508;48.790;9.028;2022-12-04T00:48:20;21.75;;;19.40;;
8946;SDS011;4508;48.790;9.028;2022-12-04T00:50:47;22.63;;;20.23;;
8946;SDS011;4508;48.790;9.028;2022-12-04T00:53:14;22.83;;;20.50;;
8946;SDS011;4508;48.790;9.028;2022-12-04T00:55:41;21.40;;;19.10;;
8946;SDS011;4508;48.790;9.028;2022-12-04T00:58:09;22.33;;;19.90;;
8946;SDS011;4508;48.790;9.028;2022-12-04T01:00:37;21.67;;;19.48;;
8946;SDS011;4508;48.790;9.028;2022-12-04T01:03:06;21.60;;;19.40;;
8946;SDS011;4508;48.790;9.028;2022-12-04T01:05:37;21.98;;;19.77;;
8946;SDS011;4508;48.790;9.028;2022-12-04T01:08:05;20.80;;;18.60;;
8946;SDS011;4508;48.790;9.028;2022-12-04T01:10:31;21.25;;;19.15;;
8946;SDS011;4508;48.790;9.028;2022-12-04T01:12:58;20.80;;;18.60;;
8946;SDS011;4508;48.790;9.028;2022-12-04T01:15:25;21.80;;;19.50;;
8946;SDS011;4508;48.790;9.028;2022-12-04T01:17:51;19.88;;;17.83;;
8946;SDS011;4508;48.790;9.028;2022-12-04T01:20:18;20.15;;;18.05;;
8946;SDS011;4508;48.790;9.028;2022-12-04T01:22:46;20.88;;;18.77;;
8946;SDS011;4508;48.790;9.028;2022-12-04T01:25:13;20.25;;;18.25;;
8946;SDS011;4508;48.790;9.028;2022-12-04T01:27:40;21.02;;;18.77;;
8946;SDS011;4508;48.790;9.028;2022-12-04T01:30:07;20.52;;;18.33;;
8946;SDS011;4508;48.790;9.028;2022-12-04T01:32:34;20.35;;;18.15;;
8946;SDS011;4508;48.790;9.028;2022-12-04T01:35:00;20.33;;;18.13;;
8946;SDS011;4508;48.790;9.028;2022-12-04T01:37:28;20.98;;;18.77;;
8946;SDS011;4508;48.790;9.028;2022-12-04T01:39:57;21.13;;;18.90;;
8946;SDS011;4508;48.790;9.028;2022-12-04T01:42:24;21.63;;;19.27;;
8946;SDS011;4508;48.790;9.028;2022-12-04T01:48:05;21.77;;;19.35;;
8946;SDS011;4508;48.790;9.028;2022-12-04T01:50:37;21.13;;;18.52;;
8946;SDS011;4508;48.790;9.028;2022-12-04T01:53:05;20.38;;;18.17;;
8946;SDS011;4508;48.790;9.028;2022-12-04T01:55:34;21.40;;;19.10;;
8946;SDS011;4508;48.790;9.028;2022-12-04T01:58:01;21.05;;;18.75;;
8946;SDS011;4508;48.790;9.028;2022-12-04T02:00:28;21.17;;;18.58;;
8946;SDS011;4508;48.790;9.028;2022-12-04T02:02:55;20.48;;;18.27;;
8946;SDS011;4508;48.790;9.028;2022-12-04T02:05:23;20.40;;;18.07;;
8946;SDS011;4508;48.790;9.028;2022-12-04T02:07:51;21.07;;;18.87;;
8946;SDS011;4508;48.790;9.028;2022-12-04T02:10:23;21.60;;;18.92;;
8946;SDS011;4508;48.790;9.028;2022-12-04T02:12:58;22.00;;;19.60;;
8946;SDS011;4508;48.790;9.028;2022-12-04T02:15:31;20.77;;;18.58;;
8946;SDS011;4508;48.790;9.028;2022-12-04T02:18:05;20.63;;;18.42;;
8946;SDS011;4508;48.790;9.028;2022-12-04T02:20:36;21.77;;;18.83;;
8946;SDS011;4508;48.790;9.028;2022-12-04T02:23:17;20.63;;;18.33;;
8946;SDS011;4508;48.790;9.028;2022-12-04T02:26:00;20.38;;;18.13;;
8946;SDS011;4508;48.790;9.028;2022-12-04T02:28:42;21.38;;;19.10;;
8946;SDS011;4508;48.790;9.028;2022-12-04T02:31:18;21.60;;;19.30;;
8946;SDS011;4508;48.790;9.028;2022-12-04T02:33:47;21.20;;;19.00;;
8946;SDS011;4508;48.790;9.028;2022-12-04T02:36:20;21.90;;;19.60;;
8946;SDS011;4508;48.790;9.028;2022-12-04T02:38:50;21.03;;;18.77;;
8946;SDS011;4508;48.790;9.028;2022-12-04T02:41:20;21.92;;;19.48;;
8946;SDS011;4508;48.790;9.028;2022-12-04T02:43:52;20.60;;;18.50;;
8946;SDS011;4508;48.790;9.028;2022-12-04T02:46:23;20.92;;;18.73;;
8946;SDS011;4508;48.790;9.028;2022-12-04T02:48:55;21.13;;;18.33;;
8946;SDS011;4508;48.790;9.028;2022-12-04T02:51:25;21.52;;;19.23;;
8946;SDS011;4508;48.790;9.028;2022-12-04T02:53:55;22.33;;;19.92;;
8946;SDS011;4508;48.790;9.028;2022-12-04T02:56:27;21.13;;;18.92;;
8946;SDS011;4508;48.790;9.028;2022-12-04T02:58:59;22.50;;;20.10;;
8946;SDS011;4508;48.790;9.028;2022-12-04T03:01:30;20.73;;;18.53;;
8946;SDS011;4508;48.790;9.028;2022-12-04T03:03:59;21.27;;;19.02;;
8946;SDS011;4508;48.790;9.028;2022-12-04T03:06:33;20.60;;;18.50;;
8946;SDS011;4508;48.790;9.028;2022-12-04T03:09:06;21.20;;;19.00;;
8946;SDS011;4508;48.790;9.028;2022-12-04T03:11:36;21.27;;;18.98;;
8946;SDS011;4508;48.790;9.028;2022-12-04T03:14:07;21.57;;;19.30;;
8946;SDS011;4508;48.790;9.028;2022-12-04T03:16:40;21.10;;;18.90;;
8946;SDS011;4508;48.790;9.028;2022-12-04T03:19:08;20.70;;;18.50;;
8946;SDS011;4508;48.790;9.028;2022-12-04T03:21:39;20.35;;;18.25;;
8946;SDS011;4508;48.790;9.028;2022-12-04T03:24:12;20.95;;;18.85;;
8946;SDS011;4508;48.790;9.028;2022-12-04T03:26:43;20.63;;;18.48;;
8946;SDS011;4508;48.790;9.028;2022-12-04T03:29:14;21.67;;;19.48;;
8946;SDS011;4508;48.790;9.028;2022-12-04T03:31:45;20.75;;;18.65;;
8946;SDS011;4508;48.790;9.028;2022-12-04T03:34:16;21.00;;;18.80;;
8946;SDS011;4508;48.790;9.028;2022-12-04T03:36:52;20.70;;;18.60;;
8946;SDS011;4508;48.790;9.028;2022-12-04T03:39:22;20.95;;;18.75;;
8946;SDS011;4508;48.790;9.028;2022-12-04T03:41:54;19.95;;;17.95;;
8946;SDS011;4508;48.790;9.028;2022-12-04T03:44:25;20.48;;;18.42;;
8946;SDS011;4508;48.790;9.028;2022-12-04T03:46:58;21.02;;;18.92;;
8946;SDS011;4508;48.790;9.028;2022-12-04T03:49:30;20.77;;;18.67;;
8946;SDS011;4508;48.790;9.028;2022-12-04T03:52:03;20.60;;;18.50;;
8946;SDS011;4508;48.790;9.028;2022-12-04T03:54:39;21.00;;;18.90;;
8946;SDS011;4508;48.790;9.028;2022-12-04T03:57:09;21.20;;;19.00;;
8946;SDS011;4508;48.790;9.028;2022-12-04T03:59:42;21.20;;;19.08;;
8946;SDS011;4508;48.790;9.028;2022-12-04T04:02:13;21.70;;;19.50;;
8946;SDS011;4508;48.790;9.028;2022-12-04T04:04:42;22.75;;;20.40;;
8946;SDS011;4508;48.790;9.028;2022-12-04T04:07:14;23.38;;;20.98;;
8946;SDS011;4508;48.790;9.028;2022-12-04T04:09:49;21.20;;;19.05;;
8946;SDS011;4508;48.790;9.028;2022-12-04T04:12:24;22.05;;;19.80;;
8946;SDS011;4508;48.790;9.028;2022-12-04T04:14:56;22.30;;;20.10;;
8946;SDS011;4508;48.790;9.028;2022-12-04T04:17:46;21.95;;;19.70;;
8946;SDS011;4508;48.790;9.028;2022-12-04T04:20:32;21.97;;;19.77;;
8946;SDS011;4508;48.790;9.028;2022-12-04T04:23:22;21.50;;;19.40;;
8946;SDS011;4508;48.790;9.028;2022-12-04T04:26:09;22.17;;;19.98;;
8946;SDS011;4508;48.790;9.028;2022-12-04T04:28:38;21.30;;;19.20;;
8946;SDS011;4508;48.790;9.028;2022-12-04T04:31:09;21.48;;;19.38;;
8946;SDS011;4508;48.790;9.028;2022-12-04T04:33:45;22.27;;;20.02;;
8946;SDS011;4508;48.790;9.028;2022-12-04T04:36:18;23.03;;;20.63;;
8946;SDS011;4508;48.790;9.028;2022-12-04T04:38:55;23.00;;;20.60;;
8946;SDS011;4508;48.790;9.028;2022-12-04T04:41:28;22.50;;;20.20;;
8946;SDS011;4508;48.790;9.028;2022-12-04T04:44:03;23.20;;;20.88;;
8946;SDS011;4508;48.790;9.028;2022-12-04T04:46:38;22.92;;;20.63;;
8946;SDS011;4508;48.790;9.028;2022-12-04T04:49:10;22.38;;;20.08;;
8946;SDS011;4508;48.790;9.028;2022-12-04T04:51:39;22.67;;;20.38;;
8946;SDS011;4508;48.790;9.028;2022-12-04T04:54:07;23.70;;;21.30;;
8946;SDS011;4508;48.790;9.028;2022-12-04T04:56:38;23.70;;;21.30;;
8946;SDS011;4508;48.790;9.028;2022-12-04T04:59:06;23.92;;;21.60;;
8946;SDS011;4508;48.790;9.028;2022-12-04T05:01:33;23.08;;;20.75;;
8946;SDS011;4508;48.790;9.028;2022-12-04T05:04:01;23.85;;;21.45;;
8946;SDS011;4508;48.790;9.028;2022-12-04T05:06:28;23.05;;;20.75;;
8946;SDS011;4508;48.790;9.028;2022-12-04T05:08:55;23.25;;;20.85;;
8946;SDS011;4508;48.790;9.028;2022-12-04T05:11:21;24.53;;;22.03;;
8946;SDS011;4508;48.790;9.028;2022-12-04T05:13:48;23.87;;;21.27;;
8946;SDS011;4508;48.790;9.028;2022-12-04T05:16:16;23.48;;;21.08;;
8946;SDS011;4508;48.790;9.028;2022-12-04T05:18:43;23.92;;;21.48;;
8946;SDS011;4508;48.790;9.028;2022-12-04T05:21:31;24.23;;;21.73;;
8946;SDS011;4508;48.790;9.028;2022-12-04T05:23:57;25.07;;;22.57;;
8946;SDS011;4508;48.790;9.028;2022-12-04T05:26:24;22.83;;;20.50;;
8946;SDS011;4508;48.790;9.028;2022-12-04T05:28:51;23.75;;;21.25;;
8946;SDS011;4508;48.790;9.028;2022-12-04T05:31:18;24.15;;;21.55;;
8946;SDS011;4508;48.790;9.028;2022-12-04T05:33:45;23.98;;;21.48;;
8946;SDS011;4508;48.790;9.028;2022-12-04T05:36:11;25.17;;;22.57;;
8946;SDS011;4508;48.790;9.028;2022-12-04T05:38:39;24.38;;;21.77;;
8946;SDS011;4508;48.790;9.028;2022-12-04T05:41:06;26.23;;;23.50;;
8946;SDS011;4508;48.790;9.028;2022-12-04T05:43:33;24.37;;;21.77;;
8946;SDS011;4508;48.790;9.028;2022-12-04T05:46:00;24.20;;;21.70;;
8946;SDS011;4508;48.790;9.028;2022-12-04T05:48:27;25.13;;;22.42;;
8946;SDS011;4508;48.790;9.028;2022-12-04T05:50:54;23.47;;;20.97;;
8946;SDS011;4508;48.790;9.028;2022-12-04T05:53:21;23.47;;;21.07;;
8946;SDS011;4508;48.790;9.028;2022-12-04T05:55:54;23.83;;;21.33;;
8946;SDS011;4508;48.790;9.028;2022-12-04T05:58:21;23.90;;;21.50;;
8946;SDS011;4508;48.790;9.028;2022-12-04T06:00:48;23.75;;;21.35;;
8946;SDS011;4508;48.790;9.028;2022-12-04T06:03:15;23.50;;;21.00;;
8946;SDS011;4508;48.790;9.028;2022-12-04T06:05:42;23.80;;;21.33;;
8946;SDS011;4508;48.790;9.028;2022-12-04T06:08:09;22.98;;;20.60;;
8946;SDS011;4508;48.790;9.028;2022-12-04T06:10:35;22.63;;;20.23;;
8946;SDS011;4508;48.790;9.028;2022-12-04T06:13:04;23.45;;;21.00;;
8946;SDS011;4508;48.790;9.028;2022-12-04T06:15:35;23.97;;;21.43;;
8946;SDS011;4508;48.790;9.028;2022-12-04T06:18:02;22.38;;;19.80;;
8946;SDS011;4508;48.790;9.028;2022-12-04T06:20:29;23.40;;;20.90;;
8946;SDS011;4508;48.790;9.028;2022-12-04T06:22:55;23.33;;;20.92;;
8946;SDS011;4508;48.790;9.028;2022-12-04T06:25:22;23.50;;;21.00;;
8946;SDS011;4508;48.790;9.028;2022-12-04T06:27:49;23.05;;;20.40;;
8946;SDS011;4508;48.790;9.028;2022-12-04T06:30:17;23.23;;;20.80;;
8946;SDS011;4508;48.790;9.028;2022-12-04T06:32:44;24.27;;;21.67;;
8946;SDS011;4508;48.790;9.028;2022-12-04T06:35:11;24.15;;;21.60;;
8946;SDS011;4508;48.790;9.028;2022-12-04T06:37:37;23.47;;;21.00;;
8946;SDS011;4508;48.790;9.028;2022-12-04T06:40:05;22.75;;;20.35;;
8946;SDS011;4508;48.790;9.028;2022-12-04T06:42:32;22.90;;;20.50;;
8946;SDS011;4508;48.790;9.028;2022-12-04T06:44:59;22.30;;;20.00;;
8946;SDS011;4508;48.790;9.028;2022-12-04T06:47:27;22.43;;;20.07;;
8946;SDS011;4508;48.790;9.028;2022-12-04T06:49:54;23.05;;;20.65;;
8946;SDS011;4508;48.790;9.028;2022-12-04T06:52:20;23.07;;;20.67;;
8946;SDS011;4508;48.790;9.028;2022-12-04T06:54:47;22.45;;;20.15;;
8946;SDS011;4508;48.790;9.028;2022-12-04T06:57:14;23.30;;;20.90;;
8946;SDS011;4508;48.790;9.028;2022-12-04T06:59:40;22.20;;;19.83;;
8946;SDS011;4508;48.790;9.028;2022-12-04T07:02:07;22.85;;;20.45;;
8946;SDS011;4508;48.790;9.028;2022-12-04T07:04:35;22.50;;;20.20;;
8946;SDS011;4508;48.790;9.028;2022-12-04T07:07:02;21.37;;;19.10;;
8946;SDS011;4508;48.790;9.028;2022-12-04T07:09:29;22.70;;;20.40;;
8946;SDS011;4508;48.790;9.028;2022-12-04T07:11:55;22.02;;;19.67;;
8946;SDS011;4508;48.790;9.028;2022-12-04T07:14:22;23.42;;;20.80;;
8946;SDS011;4508;48.790;9.028;2022-12-04T07:16:49;23.38;;;20.98;;
8946;SDS011;4508;48.790;9.028;2022-12-04T07:19:15;23.00;;;20.50;;
8946;SDS011;4508;48.790;9.028;2022-12-04T07:21:44;23.08;;;20.60;;
8946;SDS011;4508;48.790;9.028;2022-12-04T07:24:12;22.25;;;19.90;;
8946;SDS011;4508;48.790;9.028;2022-12-04T07:26:40;22.30;;;19.90;;
8946;SDS011;4508;48.790;9.028;2022-12-04T07:29:07;23.42;;;20.92;;
8946;SDS011;4508;48.790;9.028;2022-12-04T07:31:34;23.57;;;21.07;;
8946;SDS011;4508;48.790;9.028;2022-12-04T07:34:01;23.83;;;20.70;;
8946;SDS011;4508;48.790;9.028;2022-12-04T07:36:28;23.85;;;21.33;;
8946;SDS011;4508;48.790;9.028;2022-12-04T07:38:56;23.50;;;20.98;;
8946;SDS011;4508;48.790;9.028;2022-12-04T07:41:23;23.42;;;20.90;;
8946;SDS011;4508;48.790;9.028;2022-12-04T07:43:49;22.77;;;20.30;;
8946;SDS011;4508;48.790;9.028;2022-12-04T07:46:17;23.73;;;21.13;;
8946;SDS011;4508;48.790;9.028;2022-12-04T07:48:45;24.55;;;21.95;;
8946;SDS011;4508;48.790;9.028;2022-12-04T07:51:12;25.10;;;22.05;;
8946;SDS011;4508;48.790;9.028;2022-12-04T07:53:40;25.58;;;22.40;;
8946;SDS011;4508;48.790;9.028;2022-12-04T07:56:10;25.40;;;21.92;;
8946;SDS011;4508;48.790;9.028;2022-12-04T07:58:37;24.27;;;21.55;;
8946;SDS011;4508;48.790;9.028;2022-12-04T08:01:05;24.80;;;21.90;;
8946;SDS011;4508;48.790;9.028;2022-12-04T08:03:32;24.67;;;21.95;;
8946;SDS011;4508;48.790;9.028;2022-12-04T08:05:59;25.15;;;22.45;;
8946;SDS011;4508;48.790;9.028;2022-12-04T08:08:26;24.38;;;21.73;;
8946;SDS011;4508;48.790;9.028;2022-12-04T08:10:53;24.35;;;21.65;;
8946;SDS011;4508;48.790;9.028;2022-12-04T08:13:21;24.70;;;21.60;;
8946;SDS011;4508;48.790;9.028;2022-12-04T08:15:48;24.20;;;20.88;;
8946;SDS011;4508;48.790;9.028;2022-12-04T08:18:14;24.00;;;21.50;;
8946;SDS011;4508;48.790;9.028;2022-12-04T08:20:41;23.55;;;21.05;;
8946;SDS011;4508;48.790;9.028;2022-12-04T08:23:09;23.38;;;20.88;;
8946;SDS011;4508;48.790;9.028;2022-12-04T08:25:36;23.90;;;21.30;;
8946;SDS011;4508;48.790;9.028;2022-12-04T08:28:03;23.52;;;21.02;;
8946;SDS011;4508;48.790;9.028;2022-12-04T08:30:32;25.23;;;22.52;;
8946;SDS011;4508;48.790;9.028;2022-12-04T08:32:59;24.20;;;21.60;;
8946;SDS011;4508;48.790;9.028;2022-12-04T08:35:26;23.75;;;21.05;;
8946;SDS011;4508;48.790;9.028;2022-12-04T08:37:53;23.83;;;21.30;;
8946;SDS011;4508;48.790;9.028;2022-12-04T08:40:20;24.48;;;21.88;;
8946;SDS011;4508;48.790;9.028;2022-12-04T08:42:47;24.63;;;21.33;;
8946;SDS011;4508;48.790;9.028;2022-12-04T08:45:14;25.08;;;22.05;;
8946;SDS011;4508;48.790;9.028;2022-12-04T08:47:42;24.05;;;21.42;;
8946;SDS011;4508;48.790;9.028;2022-12-04T08:50:09;23.03;;;20.63;;
8946;SDS011;4508;48.790;9.028;2022-12-04T08:52:35;25.80;;;21.93;;
8946;SDS011;4508;48.790;9.028;2022-12-04T08:55:02;24.83;;;21.33;;
8946;SDS011;4508;48.790;9.028;2022-12-04T08:57:29;24.58;;;21.40;;
8946;SDS011;4508;48.790;9.028;2022-12-04T08:59:56;24.93;;;21.87;;
8946;SDS011;4508;48.790;9.028;2022-12-04T09:02:23;23.17;;;19.85;;
8946;SDS011;4508;48.790;9.028;2022-12-04T09:04:51;24.13;;;21.35;;
8946;SDS011;4508;48.790;9.028;2022-12-04T09:07:17;23.08;;;20.58;;
8946;SDS011;4508;48.790;9.028;2022-12-04T09:09:44;23.98;;;21.35;;
8946;SDS011;4508;48.790;9.028;2022-12-04T09:12:11;24.13;;;21.52;;
8946;SDS011;4508;48.790;9.028;2022-12-04T09:14:37;22.33;;;19.92;;
8946;SDS011;4508;48.790;9.028;2022-12-04T09:17:04;20.60;;;18.42;;
8946;SDS011;4508;48.790;9.028;2022-12-04T09:19:31;21.48;;;19.20;;
8946;SDS011;4508;48.790;9.028;2022-12-04T09:22:00;20.65;;;18.52;;
8946;SDS011;4508;48.790;9.028;2022-12-04T09:24:28;19.83;;;17.73;;
8946;SDS011;4508;48.790;9.028;2022-12-04T09:26:54;20.42;;;18.25;;
8946;SDS011;4508;48.790;9.028;2022-12-04T09:29:21;19.77;;;17.67;;
8946;SDS011;4508;48.790;9.028;2022-12-04T09:31:50;21.10;;;18.80;;
8946;SDS011;4508;48.790;9.028;2022-12-04T09:34:16;21.42;;;18.92;;
8946;SDS011;4508;48.790;9.028;2022-12-04T09:36:43;23.85;;;20.35;;
8946;SDS011;4508;48.790;9.028;2022-12-04T09:39:11;23.02;;;20.63;;
8946;SDS011;4508;48.790;9.028;2022-12-04T09:41:48;23.10;;;20.60;;
8946;SDS011;4508;48.790;9.028;2022-12-04T09:44:31;21.30;;;19.10;;
8946;SDS011;4508;48.790;9.028;2022-12-04T09:47:01;19.40;;;17.30;;
8946;SDS011;4508;48.790;9.028;2022-12-04T09:49:32;20.20;;;18.00;;
8946;SDS011;4508;48.790;9.028;2022-12-04T09:52:05;20.00;;;17.80;;
8946;SDS011;4508;48.790;9.028;2022-12-04T09:54:40;20.98;;;18.77;;
8946;SDS011;4508;48.790;9.028;2022-12-04T09:57:11;21.48;;;19.00;;
8946;SDS011;4508;48.790;9.028;2022-12-04T09:59:42;20.60;;;18.40;;
8946;SDS011;4508;48.790;9.028;2022-12-04T10:02:15;19.73;;;17.50;;
8946;SDS011;4508;48.790;9.028;2022-12-04T10:04:54;19.27;;;17.27;;
8946;SDS011;4508;48.790;9.028;2022-12-04T10:07:21;20.05;;;17.95;;
8946;SDS011;4508;48.790;9.028;2022-12-04T10:09:53;19.93;;;17.83;;
8946;SDS011;4508;48.790;9.028;2022-12-04T10:12:26;19.02;;;17.02;;
8946;SDS011;4508;48.790;9.028;2022-12-04T10:15:06;18.93;;;17.03;;
8946;SDS011;4508;48.790;9.028;2022-12-04T10:17:48;19.20;;;17.20;;
8946;SDS011;4508;48.790;9.028;2022-12-04T10:20:29;19.30;;;17.30;;
8946;SDS011;4508;48.790;9.028;2022-12-04T10:23:09;18.83;;;16.88;;
8946;SDS011;4508;48.790;9.028;2022-12-04T10:25:45;17.50;;;15.60;;
8946;SDS011;4508;48.790;9.028;2022-12-04T10:28:18;18.48;;;16.58;;
8946;SDS011;4508;48.790;9.028;2022-12-04T10:30:50;19.05;;;17.05;;
8946;SDS011;4508;48.790;9.028;2022-12-04T10:33:22;18.80;;;16.80;;
8946;SDS011;4508;48.790;9.028;2022-12-04T10:35:55;18.63;;;16.67;;
8946;SDS011;4508;48.790;9.028;2022-12-04T10:38:25;19.02;;;17.05;;
8946;SDS011;4508;48.790;9.028;2022-12-04T10:41:03;20.17;;;18.02;;
8946;SDS011;4508;48.790;9.028;2022-12-04T10:43:35;20.13;;;18.08;;
8946;SDS011;4508;48.790;9.028;2022-12-04T10:46:08;21.73;;;19.43;;
8946;SDS011;4508;48.790;9.028;2022-12-04T10:48:38;21.30;;;19.10;;
8946;SDS011;4508;48.790;9.028;2022-12-04T10:51:08;22.02;;;19.73;;
8946;SDS011;4508;48.790;9.028;2022-12-04T10:53:39;23.17;;;20.70;;
8946;SDS011;4508;48.790;9.028;2022-12-04T10:56:08;23.90;;;21.40;;
8946;SDS011;4508;48.790;9.028;2022-12-04T10:58:36;23.30;;;20.80;;
8946;SDS011;4508;48.790;9.028;2022-12-04T11:01:04;24.42;;;21.83;;
8946;SDS011;4508;48.790;9.028;2022-12-04T11:03:32;23.38;;;20.88;;
8946;SDS011;4508;48.790;9.028;2022-12-04T11:06:00;23.98;;;21.35;;
8946;SDS011;4508;48.790;9.028;2022-12-04T11:08:29;24.57;;;21.97;;
8946;SDS011;4508;48.790;9.028;2022-12-04T11:11:02;23.95;;;21.45;;
8946;SDS011;4508;48.790;9.028;2022-12-04T11:13:32;25.58;;;22.70;;
8946;SDS011;4508;48.790;9.028;2022-12-04T11:16:00;25.20;;;22.45;;
8946;SDS011;4508;48.790;9.028;2022-12-04T11:18:27;26.02;;;23.15;;
8946;SDS011;4508;48.790;9.028;2022-12-04T11:20:56;26.15;;;22.95;;
8946;SDS011;4508;48.790;9.028;2022-12-04T11:23:25;25.70;;;22.90;;
8946;SDS011;4508;48.790;9.028;2022-12-04T11:25:54;26.58;;;22.83;;
8946;SDS011;4508;48.790;9.028;2022-12-04T11:28:23;27.15;;;24.13;;
8946;SDS011;4508;48.790;9.028;2022-12-04T11:30:56;28.10;;;25.10;;
8946;SDS011;4508;48.790;9.028;2022-12-04T11:33:26;26.75;;;23.40;;
8946;SDS011;4508;48.790;9.028;2022-12-04T11:35:58;26.90;;;24.00;;
8946;SDS011;4508;48.790;9.028;2022-12-04T11:38:27;26.83;;;23.70;;
8946;SDS011;4508;48.790;9.028;2022-12-04T11:41:03;28.40;;;24.67;;
8946;SDS011;4508;48.790;9.028;2022-12-04T11:43:30;29.48;;;25.27;;
8946;SDS011;4508;48.790;9.028;2022-12-04T11:46:03;28.58;;;24.38;;
8946;SDS011;4508;48.790;9.028;2022-12-04T11:48:39;27.60;;;24.08;;
8946;SDS011;4508;48.790;9.028;2022-12-04T11:51:08;27.95;;;23.63;;
8946;SDS011;4508;48.790;9.028;2022-12-04T11:53:46;26.23;;;21.48;;
8946;SDS011;4508;48.790;9.028;2022-12-04T11:56:18;25.63;;;22.20;;
8946;SDS011;4508;48.790;9.028;2022-12-04T11:58:51;26.30;;;22.05;;
8946;SDS011;4508;48.790;9.028;2022-12-04T12:02:01;25.85;;;21.50;;
8946;SDS011;4508;48.790;9.028;2022-12-04T12:07:46;27.45;;;21.85;;
8946;SDS011;4508;48.790;9.028;2022-12-04T12:10:20;25.65;;;21.40;;
8946;SDS011;4508;48.790;9.028;2022-12-04T12:12:54;27.75;;;21.80;;
8946;SDS011;4508;48.790;9.028;2022-12-04T12:15:30;25.43;;;20.73;;
8946;SDS011;4508;48.790;9.028;2022-12-04T12:18:11;25.80;;;21.30;;
8946;SDS011;4508;48.790;9.028;2022-12-04T12:20:48;25.58;;;21.77;;
8946;SDS011;4508;48.790;9.028;2022-12-04T12:23:25;25.05;;;22.02;;
8946;SDS011;4508;48.790;9.028;2022-12-04T12:26:08;25.00;;;21.58;;
8946;SDS011;4508;48.790;9.028;2022-12-04T12:28:40;24.55;;;20.73;;
8946;SDS011;4508;48.790;9.028;2022-12-04T12:31:24;24.58;;;20.27;;
8946;SDS011;4508;48.790;9.028;2022-12-04T12:34:06;24.17;;;19.95;;
8946;SDS011;4508;48.790;9.028;2022-12-04T12:36:37;23.60;;;19.77;;
8946;SDS011;4508;48.790;9.028;2022-12-04T12:39:10;24.00;;;19.92;;
8946;SDS011;4508;48.790;9.028;2022-12-04T12:41:41;23.77;;;20.13;;
8946;SDS011;4508;48.790;9.028;2022-12-04T12:44:11;24.25;;;20.38;;
8946;SDS011;4508;48.790;9.028;2022-12-04T12:46:43;24.98;;;20.52;;
8946;SDS011;4508;48.790;9.028;2022-12-04T12:49:17;23.98;;;20.35;;
8946;SDS011;4508;48.790;9.028;2022-12-04T12:51:46;22.85;;;19.13;;
8946;SDS011;4508;48.790;9.028;2022-12-04T12:54:20;22.83;;;19.05;;
8946;SDS011;4508;48.790;9.028;2022-12-04T12:57:01;23.10;;;19.33;;
8946;SDS011;4508;48.790;9.028;2022-12-04T12:59:31;24.60;;;20.38;;
8946;SDS011;4508;48.790;9.028;2022-12-04T13:02:00;24.97;;;20.20;;
8946;SDS011;4508;48.790;9.028;2022-12-04T13:04:36;21.85;;;19.35;;
8946;SDS011;4508;48.790;9.028;2022-12-04T13:07:13;22.55;;;19.15;;
8946;SDS011;4508;48.790;9.028;2022-12-04T13:09:51;22.50;;;19.60;;
8946;SDS011;4508;48.790;9.028;2022-12-04T13:12:26;22.33;;;19.25;;
8946;SDS011;4508;48.790;9.028;2022-12-04T13:14:54;22.65;;;19.27;;
8946;SDS011;4508;48.790;9.028;2022-12-04T13:17:23;22.07;;;18.80;;
8946;SDS011;4508;48.790;9.028;2022-12-04T13:19:57;21.00;;;18.15;;
8946;SDS011;4508;48.790;9.028;2022-12-04T13:22:28;22.25;;;18.95;;
8946;SDS011;4508;48.790;9.028;2022-12-04T13:25:20;20.73;;;18.17;;
8946;SDS011;4508;48.790;9.028;2022-12-04T13:27:58;18.80;;;16.53;;
8946;SDS011;4508;48.790;9.028;2022-12-04T13:30:35;19.00;;;17.00;;
8946;SDS011;4508;48.790;9.028;2022-12-04T13:36:19;18.90;;;16.90;;
8946;SDS011;4508;48.790;9.028;2022-12-04T13:38:57;18.95;;;16.88;;
8946;SDS011;4508;48.790;9.028;2022-12-04T13:41:37;18.48;;;16.50;;
8946;SDS011;4508;48.790;9.028;2022-12-04T13:44:10;17.35;;;15.45;;
8946;SDS011;4508;48.790;9.028;2022-12-04T13:46:39;16.95;;;15.02;;
8946;SDS011;4508;48.790;9.028;2022-12-04T13:49:09;16.47;;;14.67;;
8946;SDS011;4508;48.790;9.028;2022-12-04T13:51:51;16.30;;;14.60;;
8946;SDS011;4508;48.790;9.028;2022-12-04T13:54:20;16.85;;;15.05;;
8946;SDS011;4508;48.790;9.028;2022-12-04T13:56:50;17.13;;;15.32;;
8946;SDS011;4508;48.790;9.028;2022-12-04T13:59:20;16.63;;;14.87;;
8946;SDS011;4508;48.790;9.028;2022-12-04T14:01:49;16.55;;;14.85;;
8946;SDS011;4508;48.790;9.028;2022-12-04T14:04:24;17.33;;;15.52;;
8946;SDS011;4508;48.790;9.028;2022-12-04T14:06:55;18.77;;;16.77;;
8946;SDS011;4508;48.790;9.028;2022-12-04T14:09:24;17.63;;;15.73;;
8946;SDS011;4508;48.790;9.028;2022-12-04T14:11:53;19.77;;;17.50;;
8946;SDS011;4508;48.790;9.028;2022-12-04T14:14:25;20.73;;;17.92;;
8946;SDS011;4508;48.790;9.028;2022-12-04T14:16:53;21.23;;;18.45;;
8946;SDS011;4508;48.790;9.028;2022-12-04T14:19:23;22.98;;;19.40;;
8946;SDS011;4508;48.790;9.028;2022-12-04T14:21:56;21.98;;;18.98;;
8946;SDS011;4508;48.790;9.028;2022-12-04T14:24:27;22.00;;;19.20;;
8946;SDS011;4508;48.790;9.028;2022-12-04T14:26:57;22.15;;;18.88;;
8946;SDS011;4508;48.790;9.028;2022-12-04T14:29:28;20.23;;;17.70;;
8946;SDS011;4508;48.790;9.028;2022-12-04T14:32:12;21.35;;;18.42;;
8946;SDS011;4508;48.790;9.028;2022-12-04T14:34:41;19.75;;;17.65;;
8946;SDS011;4508;48.790;9.028;2022-12-04T14:37:16;22.10;;;18.85;;
8946;SDS011;4508;48.790;9.028;2022-12-04T14:39:47;21.25;;;18.70;;
8946;SDS011;4508;48.790;9.028;2022-12-04T14:42:16;19.67;;;17.05;;
8946;SDS011;4508;48.790;9.028;2022-12-04T14:44:50;20.02;;;17.92;;
8946;SDS011;4508;48.790;9.028;2022-12-04T14:47:22;19.67;;;17.30;;
8946;SDS011;4508;48.790;9.028;2022-12-04T14:50:00;20.02;;;17.15;;
8946;SDS011;4508;48.790;9.028;2022-12-04T14:52:39;19.95;;;17.77;;
8946;SDS011;4508;48.790;9.028;2022-12-04T14:55:13;19.58;;;17.17;;
8946;SDS011;4508;48.790;9.028;2022-12-04T14:57:48;21.70;;;18.98;;
8946;SDS011;4508;48.790;9.028;2022-12-04T15:00:20;20.13;;;17.98;;
8946;SDS011;4508;48.790;9.028;2022-12-04T15:02:49;20.63;;;18.05;;
8946;SDS011;4508;48.790;9.028;2022-12-04T15:05:20;20.85;;;18.48;;
8946;SDS011;4508;48.790;9.028;2022-12-04T15:07:52;21.88;;;18.20;;
8946;SDS011;4508;48.790;9.028;2022-12-04T15:10:21;21.98;;;18.73;;
8946;SDS011;4508;48.790;9.028;2022-12-04T15:13:07;22.35;;;19.17;;
8946;SDS011;4508;48.790;9.028;2022-12-04T15:15:34;22.53;;;19.23;;
8946;SDS011;4508;48.790;9.028;2022-12-04T15:18:02;22.88;;;18.63;;